Time;durP1;ratioP1;P1;durP2;ratioP2;P2;SDS_P1;SDS_P2;PMS_P1;PMS_P2;Temp;Humidity;BMP_temperature;BMP_pressure;BME280_temperature;BME280_humidity;BME280_pressure;Samples;Min_cycle;Max_cycle;Signal;HPM_P1;HPM_P2
2023/07/08 00:01:15;;;;;;;6.75;3.53;;;;;;;;;;5092382;27;20524;-59
2023/07/08 00:03:41;;;;;;;7.32;3.35;;;;;;;;;;5092531;27;20036;-60
2023/07/08 00:06:11;;;;;;;9.30;3.60;;;;;;;;;;5092386;27;20052;-59
2023/07/08 00:08:37;;;;;;;9.00;3.28;;;;;;;;;;5092701;27;20039;-59
2023/07/08 00:11:08;;;;;;;13.57;3.72;;;;;;;;;;5092567;27;20036;-60
2023/07/08 00:13:34;;;;;;;9.73;3.83;;;;;;;;;;5093128;27;20087;-59
2023/07/08 00:16:00;;;;;;;7.95;3.72;;;;;;;;;;5091277;27;20106;-59
2023/07/08 00:18:26;;;;;;;9.43;3.88;;;;;;;;;;5091623;27;20033;-60
2023/07/08 00:20:52;;;;;;;9.38;3.85;;;;;;;;;;5092567;27;20072;-60
2023/07/08 00:23:21;;;;;;;10.38;3.58;;;;;;;;;;5091739;27;20048;-60
2023/07/08 00:25:48;;;;;;;8.27;3.85;;;;;;;;;;5092908;27;20123;-60
2023/07/08 00:28:18;;;;;;;6.38;3.08;;;;;;;;;;5090729;27;21904;-60
2023/07/08 00:30:44;;;;;;;12.88;4.50;;;;;;;;;;5092073;27;20044;-60
2023/07/08 00:33:10;;;;;;;9.48;4.60;;;;;;;;;;5092148;27;20123;-60
2023/07/08 00:35:38;;;;;;;6.65;3.17;;;;;;;;;;5092012;27;20040;-59
2023/07/08 00:38:15;;;;;;;12.48;4.38;;;;;;;;;;5091998;27;20377;-60
2023/07/08 00:40:51;;;;;;;9.70;4.13;;;;;;;;;;5092375;27;20037;-60
2023/07/08 00:43:18;;;;;;;8.40;3.63;;;;;;;;;;5091935;27;20044;-59
2023/07/08 00:45:47;;;;;;;10.43;3.40;;;;;;;;;;5091629;27;20040;-59
2023/07/08 00:48:30;;;;;;;12.27;3.35;;;;;;;;;;5091627;27;20111;-59
2023/07/08 00:50:56;;;;;;;9.27;3.05;;;;;;;;;;5091065;27;20554;-60
2023/07/08 00:53:24;;;;;;;5.97;3.20;;;;;;;;;;5092225;27;20467;-60
2023/07/08 00:55:51;;;;;;;7.32;2.85;;;;;;;;;;5091341;27;20611;-60
2023/07/08 00:58:19;;;;;;;9.90;3.38;;;;;;;;;;5090760;27;20041;-59
2023/07/08 01:00:45;;;;;;;5.85;2.63;;;;;;;;;;5091733;27;20097;-59
2023/07/08 01:03:11;;;;;;;7.80;2.70;;;;;;;;;;5091501;27;20892;-60
2023/07/08 01:05:38;;;;;;;4.05;2.50;;;;;;;;;;5096266;27;20603;-60
2023/07/08 01:08:06;;;;;;;4.53;3.20;;;;;;;;;;5079144;28;20863;-59
2023/07/08 01:10:39;;;;;;;5.90;2.25;;;;;;;;;;5091110;27;20033;-59
2023/07/08 01:13:07;;;;;;;5.18;1.80;;;;;;;;;;5090749;27;20167;-59
2023/07/08 01:15:37;;;;;;;4.78;2.25;;;;;;;;;;5089801;27;20032;-59
2023/07/08 01:18:03;;;;;;;7.00;2.88;;;;;;;;;;5092024;27;20048;-60
2023/07/08 01:20:29;;;;;;;7.13;2.47;;;;;;;;;;5092104;27;20040;-59
2023/07/08 01:22:55;;;;;;;8.45;2.67;;;;;;;;;;5092262;27;20506;-60
2023/07/08 01:25:22;;;;;;;4.05;2.63;;;;;;;;;;5089550;27;20534;-59
2023/07/08 01:27:49;;;;;;;3.47;1.70;;;;;;;;;;5091389;27;20506;-60
2023/07/08 01:30:16;;;;;;;3.78;1.90;;;;;;;;;;5091962;27;20035;-59
2023/07/08 01:32:46;;;;;;;5.70;2.15;;;;;;;;;;5091309;27;20047;-59
2023/07/08 01:35:13;;;;;;;5.63;2.33;;;;;;;;;;5091199;27;20448;-59
2023/07/08 01:37:43;;;;;;;6.78;1.98;;;;;;;;;;5091950;27;20531;-59
2023/07/08 01:40:16;;;;;;;3.45;2.08;;;;;;;;;;5092060;27;20039;-59
2023/07/08 01:42:42;;;;;;;8.00;3.30;;;;;;;;;;5095137;27;20051;-59
2023/07/08 01:45:12;;;;;;;5.20;1.98;;;;;;;;;;5091536;27;20044;-59
2023/07/08 01:47:40;;;;;;;5.20;2.00;;;;;;;;;;5090552;27;20113;-59
2023/07/08 01:50:07;;;;;;;6.22;2.08;;;;;;;;;;5096296;27;20040;-59
2023/07/08 01:52:33;;;;;;;4.60;2.60;;;;;;;;;;5091266;27;20071;-59
2023/07/08 01:54:59;;;;;;;3.50;2.13;;;;;;;;;;5091517;27;20055;-60
2023/07/08 01:57:25;;;;;;;5.75;2.30;;;;;;;;;;5090023;27;20076;-59
2023/07/08 01:59:51;;;;;;;5.03;2.33;;;;;;;;;;5091125;27;20063;-60
2023/07/08 02:02:17;;;;;;;6.65;2.55;;;;;;;;;;5077980;28;20070;-60
2023/07/08 02:04:43;;;;;;;3.58;1.98;;;;;;;;;;5089814;27;20041;-59
2023/07/08 02:07:09;;;;;;;6.65;3.42;;;;;;;;;;5091594;27;20036;-60
2023/07/08 02:09:35;;;;;;;6.00;2.00;;;;;;;;;;5090507;27;20044;-59
2023/07/08 02:12:01;;;;;;;5.85;3.22;;;;;;;;;;5089888;27;20040;-60
2023/07/08 02:14:27;;;;;;;5.93;2.85;;;;;;;;;;5078311;28;20496;-60
2023/07/08 02:16:53;;;;;;;5.70;1.77;;;;;;;;;;5090238;27;20055;-60
2023/07/08 02:19:21;;;;;;;5.22;2.42;;;;;;;;;;5090272;27;20041;-60
2023/07/08 02:21:47;;;;;;;5.07;2.72;;;;;;;;;;5089644;27;20966;-60
2023/07/08 02:24:16;;;;;;;5.07;2.38;;;;;;;;;;5090794;27;20083;-60
2023/07/08 02:26:42;;;;;;;4.70;2.35;;;;;;;;;;5088925;27;20139;-59
2023/07/08 02:29:08;;;;;;;6.60;2.47;;;;;;;;;;5090173;27;20105;-60
2023/07/08 02:31:34;;;;;;;4.70;1.92;;;;;;;;;;5089566;27;20127;-60
2023/07/08 02:34:03;;;;;;;5.35;2.45;;;;;;;;;;5089280;27;20049;-59
2023/07/08 02:36:30;;;;;;;3.67;1.90;;;;;;;;;;5085257;27;20086;-59
2023/07/08 02:38:56;;;;;;;5.53;1.90;;;;;;;;;;5090216;27;20053;-60
2023/07/08 02:41:22;;;;;;;4.93;2.45;;;;;;;;;;5090197;27;20040;-59
2023/07/08 02:43:48;;;;;;;5.03;2.33;;;;;;;;;;5089765;27;20598;-59
2023/07/08 02:46:14;;;;;;;3.45;1.88;;;;;;;;;;5090633;27;20062;-59
2023/07/08 02:48:40;;;;;;;6.50;1.92;;;;;;;;;;5089717;27;20116;-59
2023/07/08 02:51:08;;;;;;;5.22;2.13;;;;;;;;;;5094826;27;20068;-59
2023/07/08 02:53:34;;;;;;;4.00;1.85;;;;;;;;;;5089441;27;20056;-59
2023/07/08 02:56:00;;;;;;;3.60;1.95;;;;;;;;;;5090120;27;20040;-59
2023/07/08 02:58:26;;;;;;;4.53;2.40;;;;;;;;;;5089348;27;20046;-60
2023/07/08 03:00:53;;;;;;;3.17;1.85;;;;;;;;;;5090306;27;20036;-60
2023/07/08 03:03:19;;;;;;;6.32;1.50;;;;;;;;;;5089643;27;20044;-59
2023/07/08 03:05:53;;;;;;;3.55;2.08;;;;;;;;;;5089202;27;20090;-59
2023/07/08 03:08:19;;;;;;;3.63;2.60;;;;;;;;;;5090006;27;20047;-59
2023/07/08 03:10:48;;;;;;;3.58;1.45;;;;;;;;;;5089305;27;20039;-59
2023/07/08 03:13:14;;;;;;;4.32;1.70;;;;;;;;;;5088716;27;20056;-60
2023/07/08 03:15:40;;;;;;;4.78;2.42;;;;;;;;;;5090191;27;20040;-59
2023/07/08 03:18:07;;;;;;;3.25;2.13;;;;;;;;;;5089556;27;20043;-59
2023/07/08 03:20:36;;;;;;;4.93;2.10;;;;;;;;;;5089448;27;20608;-60
2023/07/08 03:23:02;;;;;;;5.90;2.50;;;;;;;;;;5088291;27;20048;-59
2023/07/08 03:25:28;;;;;;;5.28;2.60;;;;;;;;;;5089757;27;20047;-59
2023/07/08 03:27:55;;;;;;;5.72;2.45;;;;;;;;;;5089366;27;20548;-59
2023/07/08 03:30:21;;;;;;;4.68;2.60;;;;;;;;;;5090449;27;20109;-59
2023/07/08 03:32:47;;;;;;;6.18;3.15;;;;;;;;;;5088010;27;20048;-59
2023/07/08 03:35:13;;;;;;;4.50;2.30;;;;;;;;;;5089816;27;20045;-59
2023/07/08 03:37:40;;;;;;;8.35;2.30;;;;;;;;;;5089908;27;20059;-59
2023/07/08 03:40:09;;;;;;;4.88;2.60;;;;;;;;;;5089040;27;20528;-59
2023/07/08 03:42:35;;;;;;;5.28;2.45;;;;;;;;;;5089255;27;20051;-59
2023/07/08 03:45:01;;;;;;;8.00;2.47;;;;;;;;;;5088886;27;20115;-59
2023/07/08 03:47:27;;;;;;;8.95;2.45;;;;;;;;;;5089182;27;20047;-59
2023/07/08 03:49:53;;;;;;;4.88;2.75;;;;;;;;;;5089641;27;20498;-59
2023/07/08 03:52:20;;;;;;;5.32;2.33;;;;;;;;;;5089109;27;20048;-60
2023/07/08 03:54:46;;;;;;;5.85;2.20;;;;;;;;;;5088643;27;20560;-60
2023/07/08 03:57:12;;;;;;;3.03;1.80;;;;;;;;;;5087391;27;20428;-59
2023/07/08 03:59:39;;;;;;;4.07;2.40;;;;;;;;;;5087938;27;20059;-59
2023/07/08 04:02:05;;;;;;;4.30;1.95;;;;;;;;;;5088326;27;20522;-59
2023/07/08 04:04:31;;;;;;;4.70;2.25;;;;;;;;;;5089044;27;20044;-59
2023/07/08 04:06:57;;;;;;;5.15;2.63;;;;;;;;;;5089268;27;20047;-59
2023/07/08 04:09:23;;;;;;;3.75;2.20;;;;;;;;;;5088868;27;20044;-59
2023/07/08 04:11:49;;;;;;;3.90;1.92;;;;;;;;;;5088556;27;20120;-59
2023/07/08 04:14:16;;;;;;;4.47;2.00;;;;;;;;;;5087600;28;20070;-59
2023/07/08 04:16:45;;;;;;;4.70;2.50;;;;;;;;;;5088447;27;20037;-59
2023/07/08 04:19:14;;;;;;;4.55;2.08;;;;;;;;;;5088587;27;20036;-59
2023/07/08 04:21:40;;;;;;;4.20;1.83;;;;;;;;;;5089176;27;20116;-59
2023/07/08 04:24:06;;;;;;;6.60;2.30;;;;;;;;;;5088754;27;20044;-59
2023/07/08 04:26:35;;;;;;;5.03;2.95;;;;;;;;;;5091742;27;20206;-59
2023/07/08 04:29:01;;;;;;;6.80;1.90;;;;;;;;;;5074172;28;20448;-59
2023/07/08 04:31:27;;;;;;;6.05;1.75;;;;;;;;;;5091962;27;20110;-59
2023/07/08 04:33:53;;;;;;;6.20;2.00;;;;;;;;;;5091148;27;20206;-59
2023/07/08 04:36:21;;;;;;;7.40;2.85;;;;;;;;;;5092339;27;20096;-59
2023/07/08 04:38:48;;;;;;;3.85;2.08;;;;;;;;;;5091897;27;20181;-59
2023/07/08 04:41:14;;;;;;;3.42;1.83;;;;;;;;;;5091814;27;21288;-60
2023/07/08 04:43:41;;;;;;;5.65;2.05;;;;;;;;;;5091241;27;20029;-59
2023/07/08 04:46:16;;;;;;;5.32;2.00;;;;;;;;;;5091118;27;20115;-59
2023/07/08 04:48:42;;;;;;;4.03;2.38;;;;;;;;;;5091994;27;20044;-59
2023/07/08 04:51:08;;;;;;;4.70;2.63;;;;;;;;;;5091429;27;20056;-59
2023/07/08 04:53:34;;;;;;;7.57;2.35;;;;;;;;;;5091854;27;20032;-59
2023/07/08 04:56:00;;;;;;;5.95;1.85;;;;;;;;;;5091312;27;20040;-59
2023/07/08 04:58:26;;;;;;;3.67;2.25;;;;;;;;;;5091666;27;20045;-60
2023/07/08 05:00:52;;;;;;;7.97;2.30;;;;;;;;;;5091520;27;20419;-59
2023/07/08 05:03:19;;;;;;;6.00;2.70;;;;;;;;;;5090194;27;20048;-59
2023/07/08 05:05:45;;;;;;;5.32;2.05;;;;;;;;;;5091741;27;20047;-59
2023/07/08 05:08:12;;;;;;;7.47;2.80;;;;;;;;;;5092026;27;20045;-59
2023/07/08 05:10:39;;;;;;;4.35;2.30;;;;;;;;;;5091729;27;20088;-59
2023/07/08 05:13:05;;;;;;;6.60;2.00;;;;;;;;;;5091525;27;20047;-59
2023/07/08 05:15:31;;;;;;;8.20;2.28;;;;;;;;;;5091014;27;20064;-59
2023/07/08 05:17:57;;;;;;;4.53;2.22;;;;;;;;;;5091524;27;20036;-59
2023/07/08 05:20:23;;;;;;;10.38;2.67;;;;;;;;;;5090248;27;20649;-59
2023/07/08 05:22:49;;;;;;;16.20;3.22;;;;;;;;;;5091287;27;20044;-60
2023/07/08 05:25:16;;;;;;;7.85;2.35;;;;;;;;;;5095408;27;20066;-59
2023/07/08 05:27:42;;;;;;;5.80;2.08;;;;;;;;;;5091846;27;20052;-59
2023/07/08 05:30:12;;;;;;;4.68;3.03;;;;;;;;;;5091208;27;20045;-59
2023/07/08 05:32:38;;;;;;;5.78;2.70;;;;;;;;;;5090190;27;20098;-59
2023/07/08 05:35:04;;;;;;;5.72;2.60;;;;;;;;;;5089537;27;20131;-60
2023/07/08 05:37:30;;;;;;;3.95;2.58;;;;;;;;;;5074693;28;20127;-60
2023/07/08 05:39:59;;;;;;;9.18;2.97;;;;;;;;;;5091073;27;20048;-59
2023/07/08 05:42:25;;;;;;;6.32;3.13;;;;;;;;;;5091870;27;20046;-60
2023/07/08 05:44:52;;;;;;;9.05;2.58;;;;;;;;;;5090901;27;20032;-60
2023/07/08 05:47:18;;;;;;;8.90;2.97;;;;;;;;;;5091642;27;20044;-60
2023/07/08 05:49:44;;;;;;;6.00;2.75;;;;;;;;;;5079658;28;20053;-60
2023/07/08 05:52:13;;;;;;;6.47;2.33;;;;;;;;;;5095665;27;20495;-60
2023/07/08 05:54:39;;;;;;;8.43;3.08;;;;;;;;;;5091527;27;20169;-60
2023/07/08 05:57:10;;;;;;;5.55;2.72;;;;;;;;;;5092182;27;20543;-60
2023/07/08 05:59:38;;;;;;;8.47;3.20;;;;;;;;;;5090781;27;20548;-60
2023/07/08 06:02:04;;;;;;;5.95;2.80;;;;;;;;;;5090626;27;20044;-60
2023/07/08 06:04:30;;;;;;;6.65;2.70;;;;;;;;;;5090683;27;20044;-60
2023/07/08 06:06:57;;;;;;;10.63;3.13;;;;;;;;;;5091246;27;20045;-60
2023/07/08 06:09:23;;;;;;;8.40;2.13;;;;;;;;;;5090014;27;20523;-60
2023/07/08 06:11:49;;;;;;;5.75;3.28;;;;;;;;;;5091470;27;20043;-60
2023/07/08 06:14:15;;;;;;;6.15;2.38;;;;;;;;;;5090288;27;20514;-60
2023/07/08 06:16:41;;;;;;;7.85;2.75;;;;;;;;;;5090728;27;20040;-60
2023/07/08 06:19:08;;;;;;;9.02;3.05;;;;;;;;;;5091420;27;20040;-60
2023/07/08 06:21:34;;;;;;;7.88;2.80;;;;;;;;;;5091076;27;20040;-60
2023/07/08 06:24:00;;;;;;;7.85;3.10;;;;;;;;;;5091155;27;20037;-60
2023/07/08 06:26:26;;;;;;;7.32;2.63;;;;;;;;;;5090520;27;20502;-60
2023/07/08 06:28:52;;;;;;;8.85;2.80;;;;;;;;;;5078965;27;20047;-60
2023/07/08 06:31:18;;;;;;;5.43;3.05;;;;;;;;;;5070909;27;20469;-60
2023/07/08 06:33:45;;;;;;;5.22;2.60;;;;;;;;;;5090823;27;20040;-60
2023/07/08 06:36:11;;;;;;;9.32;3.65;;;;;;;;;;5090375;27;20042;-60
2023/07/08 06:38:37;;;;;;;8.60;3.22;;;;;;;;;;5091101;27;20071;-60
2023/07/08 06:41:03;;;;;;;8.02;3.03;;;;;;;;;;5090346;27;20863;-60
2023/07/08 06:43:29;;;;;;;12.43;2.90;;;;;;;;;;5078719;28;20560;-60
2023/07/08 06:45:56;;;;;;;10.35;3.42;;;;;;;;;;5088744;27;20522;-60
2023/07/08 06:48:24;;;;;;;12.63;3.45;;;;;;;;;;5089201;27;20055;-60
2023/07/08 06:50:50;;;;;;;8.80;2.90;;;;;;;;;;5088241;27;20575;-60
2023/07/08 06:53:16;;;;;;;6.22;2.97;;;;;;;;;;5078940;27;20116;-60
2023/07/08 06:55:44;;;;;;;11.43;3.50;;;;;;;;;;5089737;27;20505;-60
2023/07/08 06:58:10;;;;;;;7.20;3.35;;;;;;;;;;5089149;27;20471;-60
2023/07/08 07:00:36;;;;;;;5.30;3.08;;;;;;;;;;5089845;27;20044;-60
2023/07/08 07:03:02;;;;;;;14.50;2.92;;;;;;;;;;5090129;27;20580;-60
2023/07/08 07:05:28;;;;;;;9.45;2.60;;;;;;;;;;5089669;27;20545;-60
2023/07/08 07:07:56;;;;;;;9.80;3.20;;;;;;;;;;5090330;27;20044;-60
2023/07/08 07:10:22;;;;;;;10.05;3.40;;;;;;;;;;5089908;27;20052;-60
2023/07/08 07:12:48;;;;;;;9.85;3.83;;;;;;;;;;5090585;27;20067;-60
2023/07/08 07:15:14;;;;;;;9.50;3.45;;;;;;;;;;5089797;27;20037;-60
2023/07/08 07:17:40;;;;;;;9.45;2.97;;;;;;;;;;5090018;27;20040;-60
2023/07/08 07:20:06;;;;;;;11.93;3.47;;;;;;;;;;5094183;27;20048;-60
2023/07/08 07:22:32;;;;;;;10.25;3.50;;;;;;;;;;5090045;27;20579;-60
2023/07/08 07:24:59;;;;;;;10.38;4.20;;;;;;;;;;5089707;27;20092;-60
2023/07/08 07:27:25;;;;;;;6.68;3.30;;;;;;;;;;5089878;27;20044;-60
2023/07/08 07:29:52;;;;;;;12.63;4.10;;;;;;;;;;5088271;27;20040;-60
2023/07/08 07:32:18;;;;;;;12.43;3.83;;;;;;;;;;5087810;27;20047;-60
2023/07/08 07:34:48;;;;;;;9.07;3.28;;;;;;;;;;5087669;27;20036;-60
2023/07/08 07:37:14;;;;;;;7.55;3.05;;;;;;;;;;5088578;27;20825;-60
2023/07/08 07:39:41;;;;;;;7.13;2.35;;;;;;;;;;5088336;27;20032;-60
2023/07/08 07:42:07;;;;;;;8.15;3.40;;;;;;;;;;5089330;27;20470;-60
2023/07/08 07:44:34;;;;;;;7.97;3.72;;;;;;;;;;5088840;27;20036;-60
2023/07/08 07:47:00;;;;;;;14.07;3.80;;;;;;;;;;5088546;27;20036;-60
2023/07/08 07:49:26;;;;;;;6.97;2.67;;;;;;;;;;5087699;27;20075;-60
2023/07/08 07:51:52;;;;;;;6.75;2.97;;;;;;;;;;5089777;27;20043;-60
2023/07/08 07:54:18;;;;;;;8.70;3.42;;;;;;;;;;5087600;27;20505;-60
2023/07/08 07:56:44;;;;;;;5.85;2.75;;;;;;;;;;5088810;27;20470;-60
2023/07/08 07:59:11;;;;;;;10.68;2.63;;;;;;;;;;5088395;27;20585;-60
2023/07/08 08:01:37;;;;;;;6.97;3.53;;;;;;;;;;5091821;27;20040;-60
2023/07/08 08:04:03;;;;;;;5.57;2.67;;;;;;;;;;5092636;27;20048;-60
2023/07/08 08:06:29;;;;;;;7.78;3.17;;;;;;;;;;5093348;27;20052;-60
2023/07/08 08:08:56;;;;;;;5.03;3.10;;;;;;;;;;5092535;27;20192;-60
2023/07/08 08:11:22;;;;;;;6.30;2.72;;;;;;;;;;5092646;27;20036;-60
2023/07/08 08:13:48;;;;;;;9.25;2.78;;;;;;;;;;5092193;27;20040;-60
2023/07/08 08:16:14;;;;;;;4.60;2.70;;;;;;;;;;5092502;27;20536;-60
2023/07/08 08:18:40;;;;;;;4.80;2.75;;;;;;;;;;5091744;27;20053;-60
2023/07/08 08:21:07;;;;;;;8.05;3.33;;;;;;;;;;5093464;27;20040;-60
2023/07/08 08:23:33;;;;;;;4.10;2.60;;;;;;;;;;5092213;27;20044;-60
2023/07/08 08:25:59;;;;;;;6.47;2.80;;;;;;;;;;5092142;27;20044;-60
2023/07/08 08:28:25;;;;;;;5.75;2.72;;;;;;;;;;5092355;27;20580;-60
2023/07/08 08:30:51;;;;;;;5.95;2.47;;;;;;;;;;5093337;27;20036;-60
2023/07/08 08:33:18;;;;;;;6.55;2.45;;;;;;;;;;5092429;27;20040;-60
2023/07/08 08:35:45;;;;;;;4.85;2.30;;;;;;;;;;5080894;28;20044;-60
2023/07/08 08:38:11;;;;;;;5.60;2.10;;;;;;;;;;5092541;27;20051;-60
2023/07/08 08:40:37;;;;;;;5.70;3.45;;;;;;;;;;5092509;27;20148;-61
2023/07/08 08:43:08;;;;;;;6.45;2.63;;;;;;;;;;5092383;27;20040;-60
2023/07/08 08:45:44;;;;;;;3.63;2.17;;;;;;;;;;5091499;27;20242;-60
2023/07/08 08:48:13;;;;;;;5.00;2.47;;;;;;;;;;5091444;27;20049;-60
2023/07/08 08:50:45;;;;;;;3.28;1.80;;;;;;;;;;5090388;27;20043;-60
2023/07/08 08:53:15;;;;;;;4.28;2.15;;;;;;;;;;5092367;27;20150;-60
2023/07/08 08:55:42;;;;;;;6.40;2.45;;;;;;;;;;5091568;27;20119;-60
2023/07/08 08:58:14;;;;;;;4.55;2.10;;;;;;;;;;5091547;27;20040;-60
2023/07/08 09:00:43;;;;;;;9.63;2.47;;;;;;;;;;5092186;27;20105;-60
2023/07/08 09:03:12;;;;;;;3.58;2.10;;;;;;;;;;5093174;27;20040;-60
2023/07/08 09:05:38;;;;;;;6.40;2.58;;;;;;;;;;5090305;27;20499;-60
2023/07/08 09:08:04;;;;;;;3.63;2.03;;;;;;;;;;5092093;27;20431;-60
2023/07/08 09:10:50;;;;;;;4.63;1.95;;;;;;;;;;5092938;27;20068;-60
2023/07/08 09:13:19;;;;;;;8.25;2.33;;;;;;;;;;5074842;27;20567;-60
2023/07/08 09:15:45;;;;;;;7.30;2.33;;;;;;;;;;5091498;27;20832;-60
2023/07/08 09:18:26;;;;;;;4.35;2.08;;;;;;;;;;5090666;27;21064;-60
2023/07/08 09:20:53;;;;;;;4.03;2.50;;;;;;;;;;5091373;27;20045;-60
2023/07/08 09:23:39;;;;;;;3.97;2.05;;;;;;;;;;5097045;27;20059;-60
2023/07/08 09:26:08;;;;;;;7.43;2.55;;;;;;;;;;5090942;27;20036;-60
2023/07/08 09:28:38;;;;;;;5.63;1.92;;;;;;;;;;5090893;27;20075;-60
2023/07/08 09:31:06;;;;;;;4.80;2.55;;;;;;;;;;5090547;27;20075;-60
2023/07/08 09:33:32;;;;;;;5.10;2.25;;;;;;;;;;5091530;27;20044;-60
2023/07/08 09:35:58;;;;;;;3.28;1.95;;;;;;;;;;5090273;27;20044;-60
2023/07/08 09:38:24;;;;;;;4.13;2.20;;;;;;;;;;5091081;27;20047;-60
2023/07/08 09:40:53;;;;;;;4.75;1.88;;;;;;;;;;5090626;27;20037;-60
2023/07/08 09:43:26;;;;;;;2.90;1.83;;;;;;;;;;5090736;27;20044;-60
2023/07/08 09:45:56;;;;;;;4.80;1.70;;;;;;;;;;5090243;27;20151;-59
2023/07/08 09:48:26;;;;;;;4.25;1.95;;;;;;;;;;5090024;27;20051;-60
2023/07/08 09:50:52;;;;;;;4.18;2.10;;;;;;;;;;5091757;27;20052;-60
2023/07/08 09:53:19;;;;;;;6.13;2.42;;;;;;;;;;5091052;27;20621;-59
2023/07/08 09:55:45;;;;;;;4.38;2.08;;;;;;;;;;5090998;27;20045;-60
2023/07/08 09:58:16;;;;;;;6.03;1.92;;;;;;;;;;5090944;27;20146;-60
2023/07/08 10:00:43;;;;;;;5.63;2.20;;;;;;;;;;5090657;27;20040;-60
2023/07/08 10:03:17;;;;;;;3.70;2.53;;;;;;;;;;5087470;27;20044;-60
2023/07/08 10:05:43;;;;;;;4.80;2.20;;;;;;;;;;5090175;27;20036;-60
2023/07/08 10:08:15;;;;;;;6.03;2.22;;;;;;;;;;5090874;27;20086;-60
2023/07/08 10:10:42;;;;;;;7.38;2.05;;;;;;;;;;5090049;27;20629;-60
2023/07/08 10:13:29;;;;;;;4.05;2.45;;;;;;;;;;5090591;27;20040;-60
2023/07/08 10:15:57;;;;;;;4.50;2.28;;;;;;;;;;5089225;27;20155;-60
2023/07/08 10:18:26;;;;;;;7.80;3.13;;;;;;;;;;5090542;27;20075;-60
2023/07/08 10:20:58;;;;;;;5.18;2.08;;;;;;;;;;5089924;27;20040;-60
2023/07/08 10:24:03;;;;;;;4.18;1.88;;;;;;;;;;5089103;27;20585;-59
2023/07/08 10:26:30;;;;;;;3.67;2.20;;;;;;;;;;4988082;28;20042;-60
2023/07/08 10:29:09;;;;;;;6.35;2.25;;;;;;;;;;4989078;28;20166;-59
2023/07/08 10:31:38;;;;;;;6.93;2.00;;;;;;;;;;5045761;27;20072;-59
2023/07/08 10:34:07;;;;;;;4.47;2.03;;;;;;;;;;5090315;27;20131;-60
2023/07/08 10:37:00;;;;;;;6.40;2.08;;;;;;;;;;5089870;27;20713;-60
2023/07/08 10:39:26;;;;;;;4.07;2.80;;;;;;;;;;5087879;27;20135;-60
2023/07/08 10:41:52;;;;;;;5.13;2.40;;;;;;;;;;5089801;27;20060;-60
2023/07/08 10:44:21;;;;;;;5.03;2.83;;;;;;;;;;5089996;27;20044;-60
2023/07/08 10:46:54;;;;;;;6.32;2.60;;;;;;;;;;5089806;27;20540;-60
2023/07/08 10:49:29;;;;;;;9.73;5.43;;;;;;;;;;5073098;27;20067;-60
2023/07/08 10:52:25;;;;;;;9.93;4.38;;;;;;;;;;5090321;27;20040;-60
2023/07/08 10:55:06;;;;;;;6.90;3.28;;;;;;;;;;5074727;27;20056;-60
2023/07/08 10:57:41;;;;;;;7.60;3.63;;;;;;;;;;5090406;27;20598;-60
2023/07/08 11:00:11;;;;;;;5.10;2.53;;;;;;;;;;5090445;27;20040;-60
2023/07/08 11:02:36;;;;;;;4.05;2.15;;;;;;;;;;5090308;27;20412;-60
2023/07/08 11:05:03;;;;;;;5.78;3.47;;;;;;;;;;5089736;27;20040;-60
2023/07/08 11:07:33;;;;;;;3.78;2.00;;;;;;;;;;5088717;27;20127;-60
2023/07/08 11:10:08;;;;;;;4.20;2.40;;;;;;;;;;5089064;27;20124;-60
2023/07/08 11:12:41;;;;;;;4.57;2.30;;;;;;;;;;5090300;27;20048;-60
2023/07/08 11:15:16;;;;;;;5.65;3.20;;;;;;;;;;5089462;27;20159;-60
2023/07/08 11:18:00;;;;;;;4.82;2.40;;;;;;;;;;5089061;27;20036;-60
2023/07/08 11:20:26;;;;;;;4.60;3.05;;;;;;;;;;5089905;27;20070;-60
2023/07/08 11:22:59;;;;;;;4.07;2.75;;;;;;;;;;5089510;27;20043;-60
2023/07/08 11:25:25;;;;;;;5.47;3.08;;;;;;;;;;5090363;27;20244;-60
2023/07/08 11:27:54;;;;;;;5.85;3.33;;;;;;;;;;5089099;27;20482;-60
2023/07/08 11:30:25;;;;;;;5.82;2.95;;;;;;;;;;5078072;28;20047;-60
2023/07/08 11:32:58;;;;;;;5.53;3.00;;;;;;;;;;5089187;27;20047;-60
2023/07/08 11:35:28;;;;;;;4.47;2.90;;;;;;;;;;5098734;27;20451;-59
2023/07/08 11:37:54;;;;;;;4.95;2.90;;;;;;;;;;5085378;27;20844;-60
2023/07/08 11:40:21;;;;;;;5.30;3.20;;;;;;;;;;5096580;27;20036;-60
2023/07/08 11:42:49;;;;;;;11.57;3.17;;;;;;;;;;5095994;27;20052;-60
2023/07/08 11:45:24;;;;;;;4.35;2.65;;;;;;;;;;5096084;27;20044;-60
2023/07/08 11:47:50;;;;;;;3.65;2.38;;;;;;;;;;5095128;27;20137;-60
2023/07/08 11:50:25;;;;;;;4.15;2.30;;;;;;;;;;5082326;27;20043;-60
2023/07/08 11:52:52;;;;;;;5.50;3.05;;;;;;;;;;5096221;27;20040;-60
2023/07/08 11:55:28;;;;;;;7.45;2.40;;;;;;;;;;5095680;27;20032;-60
2023/07/08 11:57:58;;;;;;;4.13;3.03;;;;;;;;;;5095220;27;20506;-60
2023/07/08 12:00:25;;;;;;;5.78;2.83;;;;;;;;;;5095334;27;20119;-60
2023/07/08 12:02:54;;;;;;;4.68;2.60;;;;;;;;;;5100089;27;20070;-60
2023/07/08 12:05:29;;;;;;;6.22;2.92;;;;;;;;;;5095584;27;20044;-60
2023/07/08 12:08:03;;;;;;;6.07;2.47;;;;;;;;;;5095968;27;20631;-60
2023/07/08 12:10:39;;;;;;;5.68;2.80;;;;;;;;;;5095415;27;20602;-60
2023/07/08 12:13:09;;;;;;;4.75;3.45;;;;;;;;;;5095414;27;20047;-60
2023/07/08 12:15:35;;;;;;;7.10;3.72;;;;;;;;;;5094686;27;20045;-60
2023/07/08 12:18:04;;;;;;;4.15;2.85;;;;;;;;;;5095178;27;20055;-60
2023/07/08 12:20:32;;;;;;;4.68;2.85;;;;;;;;;;5095869;27;20056;-60
2023/07/08 12:22:59;;;;;;;5.43;2.88;;;;;;;;;;5095635;27;20047;-60
2023/07/08 12:25:31;;;;;;;4.82;2.50;;;;;;;;;;5095616;27;20079;-60
2023/07/08 12:27:57;;;;;;;;;;;;;;;;;;5084109;27;20822;-60
2023/07/08 12:30:23;;;;;;;5.68;2.67;;;;;;;;;;5098727;27;19927;-60
2023/07/08 12:32:49;;;;;;;5.35;3.55;;;;;;;;;;5096037;27;20083;-60
2023/07/08 12:35:21;;;;;;;7.15;3.28;;;;;;;;;;5095458;27;20040;-60
2023/07/08 12:37:47;;;;;;;5.28;2.65;;;;;;;;;;5095725;27;20715;-60
2023/07/08 12:40:14;;;;;;;5.35;2.30;;;;;;;;;;5095872;27;20051;-60
2023/07/08 12:42:40;;;;;;;3.72;2.47;;;;;;;;;;5096416;27;20045;-60
2023/07/08 12:45:13;;;;;;;4.45;2.78;;;;;;;;;;5095523;27;20540;-60
2023/07/08 12:47:39;;;;;;;4.35;2.63;;;;;;;;;;5092143;27;20049;-60
2023/07/08 12:50:06;;;;;;;6.45;2.28;;;;;;;;;;5092111;27;20068;-60
2023/07/08 12:52:32;;;;;;;7.15;3.15;;;;;;;;;;5092215;27;20036;-60
2023/07/08 12:54:58;;;;;;;3.55;2.22;;;;;;;;;;5091528;27;20040;-60
2023/07/08 12:57:24;;;;;;;5.57;2.47;;;;;;;;;;5092118;27;20045;-60
2023/07/08 12:59:51;;;;;;;4.25;2.65;;;;;;;;;;5091764;27;20048;-60
2023/07/08 13:02:21;;;;;;;6.32;2.80;;;;;;;;;;5092228;27;20040;-60
2023/07/08 13:04:53;;;;;;;4.80;2.45;;;;;;;;;;5092211;27;20044;-60
2023/07/08 13:07:33;;;;;;;4.72;2.80;;;;;;;;;;5090894;27;20048;-60
2023/07/08 13:10:00;;;;;;;4.82;2.58;;;;;;;;;;5091460;27;20068;-60
2023/07/08 13:12:26;;;;;;;3.80;2.60;;;;;;;;;;5087768;27;20155;-60
2023/07/08 13:14:57;;;;;;;3.40;2.30;;;;;;;;;;5091172;27;20163;-60
2023/07/08 13:17:23;;;;;;;;;;;;;;;;;;5091963;27;20041;-60
2023/07/08 13:19:50;;;;;;;3.30;2.30;;;;;;;;;;5091481;27;19959;-60
2023/07/08 13:22:17;;;;;;;3.72;2.63;;;;;;;;;;5091760;27;20513;-60
2023/07/08 13:24:43;;;;;;;5.05;2.08;;;;;;;;;;5091681;27;20048;-60
2023/07/08 13:27:13;;;;;;;3.28;1.98;;;;;;;;;;5091625;27;20451;-60
2023/07/08 13:29:39;;;;;;;4.53;3.05;;;;;;;;;;5091047;27;20190;-60
2023/07/08 13:32:07;;;;;;;3.85;2.22;;;;;;;;;;5090372;27;20052;-60
2023/07/08 13:34:33;;;;;;;3.72;2.38;;;;;;;;;;5090479;27;20690;-60
2023/07/08 13:37:00;;;;;;;7.22;2.78;;;;;;;;;;5091093;27;20044;-60
2023/07/08 13:39:33;;;;;;;3.45;2.15;;;;;;;;;;5090293;27;20639;-60
2023/07/08 13:42:00;;;;;;;3.20;2.13;;;;;;;;;;5090890;27;20048;-59
2023/07/08 13:44:26;;;;;;;4.18;2.40;;;;;;;;;;5091275;27;20053;-60
2023/07/08 13:46:57;;;;;;;2.75;1.60;;;;;;;;;;5090490;27;20075;-60
2023/07/08 13:49:27;;;;;;;2.97;1.90;;;;;;;;;;5090821;27;20156;-60
2023/07/08 13:52:04;;;;;;;4.85;2.00;;;;;;;;;;5092029;27;20490;-60
2023/07/08 13:54:38;;;;;;;4.97;2.22;;;;;;;;;;5090521;27;20131;-60
2023/07/08 13:57:09;;;;;;;4.70;2.35;;;;;;;;;;5091129;27;20435;-60
2023/07/08 13:59:35;;;;;;;3.25;1.90;;;;;;;;;;5093766;27;20055;-60
2023/07/08 14:02:01;;;;;;;3.78;2.10;;;;;;;;;;5090537;27;20052;-60
2023/07/08 14:04:30;;;;;;;5.53;2.03;;;;;;;;;;5090851;27;20052;-60
2023/07/08 14:06:56;;;;;;;3.00;2.13;;;;;;;;;;5090914;27;20102;-60
2023/07/08 14:09:23;;;;;;;3.42;1.95;;;;;;;;;;5089946;27;20507;-60
2023/07/08 14:11:50;;;;;;;2.03;1.45;;;;;;;;;;5090651;27;20115;-60
2023/07/08 14:14:17;;;;;;;2.92;1.80;;;;;;;;;;5087731;27;20044;-60
2023/07/08 14:16:45;;;;;;;4.53;1.92;;;;;;;;;;5088404;27;20059;-60
2023/07/08 14:19:16;;;;;;;5.65;2.35;;;;;;;;;;5090487;27;20528;-60
2023/07/08 14:21:42;;;;;;;4.45;1.80;;;;;;;;;;5089546;27;20047;-60
2023/07/08 14:24:12;;;;;;;5.25;1.60;;;;;;;;;;5089751;27;20569;-60
2023/07/08 14:26:39;;;;;;;3.00;1.55;;;;;;;;;;5090583;27;20068;-60
2023/07/08 14:29:05;;;;;;;3.38;2.35;;;;;;;;;;5078008;28;20162;-60
2023/07/08 14:31:31;;;;;;;3.88;1.77;;;;;;;;;;5089947;27;20064;-60
2023/07/08 14:34:08;;;;;;;4.40;2.15;;;;;;;;;;5087643;27;20127;-60
2023/07/08 14:36:34;;;;;;;2.60;1.50;;;;;;;;;;5088382;27;20052;-60
2023/07/08 14:39:00;;;;;;;3.10;1.60;;;;;;;;;;5089857;27;20040;-60
2023/07/08 14:41:27;;;;;;;8.23;1.90;;;;;;;;;;5090673;27;20129;-60
2023/07/08 14:43:53;;;;;;;3.20;1.63;;;;;;;;;;5089369;27;20036;-60
2023/07/08 14:46:19;;;;;;;2.70;1.83;;;;;;;;;;5089724;27;20529;-60
2023/07/08 14:48:45;;;;;;;3.10;1.90;;;;;;;;;;5090337;27;20530;-60